Time;durP1;ratioP1;P1;durP2;ratioP2;P2;SDS_P1;SDS_P2;PMS_P1;PMS_P2;Temp;Humidity;BMP_temperature;BMP_pressure;BME280_temperature;BME280_humidity;BME280_pressure;Samples;Min_cycle;Max_cycle;Signal;HPM_P1;HPM_P2
2023/04/25 00:02:20;;;;;;;46.80;21.13;;;7.30;88.10;;;;;;5034338;28;20172;-85
2023/04/25 00:04:48;;;;;;;51.07;21.67;;;7.40;87.90;;;;;;5016613;28;20238;-86
2023/04/25 00:07:14;;;;;;;37.57;20.37;;;7.30;87.80;;;;;;5016552;28;20236;-85
2023/04/25 00:09:40;;;;;;;36.27;20.57;;;7.30;87.70;;;;;;5034409;28;20260;-86
2023/04/25 00:12:06;;;;;;;34.40;11.77;;;7.30;87.90;;;;;;5016432;28;20185;-85
2023/04/25 00:14:33;;;;;;;36.57;11.87;;;7.30;87.70;;;;;;5016613;28;20609;-86
2023/04/25 00:16:59;;;;;;;37.77;22.10;;;7.30;87.30;;;;;;5034172;28;20212;-85
2023/04/25 00:19:26;;;;;;;36.47;19.47;;;7.30;87.20;;;;;;5016373;28;20636;-85
2023/04/25 00:21:53;;;;;;;36.60;21.03;;;7.30;87.20;;;;;;5034069;28;20235;-86
2023/04/25 00:24:19;;;;;;;33.23;19.83;;;7.30;87.20;;;;;;5034034;28;20173;-86
2023/04/25 00:26:44;;;;;;;32.90;11.03;;;7.30;87.10;;;;;;5033949;28;20205;-86
2023/04/25 00:29:10;;;;;;;35.97;12.23;;;7.30;87.40;;;;;;5016141;28;20183;-86
2023/04/25 00:31:35;;;;;;;33.63;19.90;;;7.20;86.80;;;;;;5016137;28;20203;-86
2023/04/25 00:34:02;;;;;;;26.60;19.30;;;7.30;86.60;;;;;;5016735;28;20231;-86
2023/04/25 00:36:28;;;;;;;35.77;19.00;;;7.30;86.90;;;;;;5033605;28;20698;-86
2023/04/25 00:38:54;;;;;;;36.30;19.83;;;7.30;87.10;;;;;;5016034;28;20215;-86
2023/04/25 00:41:20;;;;;;;38.60;12.90;;;7.20;87.10;;;;;;5033744;28;20635;-86
2023/04/25 00:43:47;;;;;;;32.60;12.80;;;7.20;87.00;;;;;;5016008;28;20230;-85
2023/04/25 00:46:13;;;;;;;37.43;19.47;;;7.10;86.70;;;;;;5015562;28;20267;-86
2023/04/25 00:48:38;;;;;;;36.83;20.53;;;7.10;86.70;;;;;;5015958;28;20180;-86
2023/04/25 00:51:04;;;;;;;41.47;20.17;;;7.10;86.80;;;;;;5033604;28;20181;-85
2023/04/25 00:53:32;;;;;;;44.70;20.80;;;7.10;86.70;;;;;;5033485;28;20180;-86
2023/04/25 00:55:57;;;;;;;36.03;20.53;;;7.00;86.60;;;;;;5015656;28;20642;-85
2023/04/25 00:58:23;;;;;;;37.00;12.40;;;7.10;87.10;;;;;;5015730;28;20207;-85
2023/04/25 01:00:51;;;;;;;35.83;13.00;;;7.00;87.20;;;;;;5015737;28;20202;-86
2023/04/25 01:03:19;;;;;;;42.10;20.03;;;7.00;87.20;;;;;;5015729;28;20188;-86
2023/04/25 01:05:46;;;;;;;45.47;21.60;;;7.00;87.30;;;;;;5015609;28;20188;-85
2023/04/25 01:08:12;;;;;;;44.23;21.80;;;7.00;87.20;;;;;;5015687;28;20176;-86
2023/04/25 01:10:37;;;;;;;39.67;21.20;;;6.90;86.70;;;;;;5015709;28;20533;-86
2023/04/25 01:13:03;;;;;;;32.33;13.40;;;6.90;86.70;;;;;;5033318;28;20169;-86
2023/04/25 01:15:29;;;;;;;34.23;12.53;;;6.80;85.70;;;;;;5015549;28;20173;-86
2023/04/25 01:17:55;;;;;;;31.07;22.27;;;6.80;84.60;;;;;;5015484;28;20192;-86
2023/04/25 01:20:24;;;;;;;40.27;21.87;;;6.80;83.70;;;;;;5015482;28;20205;-86
2023/04/25 01:22:54;;;;;;;38.90;21.87;;;6.80;83.90;;;;;;5015487;28;20187;-86
2023/04/25 01:25:21;;;;;;;35.27;23.47;;;6.80;83.80;;;;;;5033186;28;20165;-86
2023/04/25 01:27:46;;;;;;;27.40;11.77;;;6.80;83.00;;;;;;5015627;28;20196;-86
2023/04/25 01:30:13;;;;;;;46.27;12.23;;;6.80;83.40;;;;;;5015388;28;20677;-86
2023/04/25 01:32:39;;;;;;;42.20;22.43;;;6.70;83.40;;;;;;5033083;28;20523;-86
2023/04/25 01:35:09;;;;;;;38.47;22.70;;;6.70;83.00;;;;;;5015403;28;20181;-86
2023/04/25 01:37:36;;;;;;;39.63;23.67;;;6.70;83.00;;;;;;5015093;28;20220;-87
2023/04/25 01:40:05;;;;;;;33.37;23.53;;;6.60;82.20;;;;;;5016151;28;20258;-86
2023/04/25 01:42:31;;;;;;;30.17;11.40;;;6.60;81.80;;;;;;5015421;28;20231;-86
2023/04/25 01:44:57;;;;;;;21.57;11.30;;;6.60;82.00;;;;;;5015376;28;20183;-86
2023/04/25 01:47:23;;;;;;;20.40;11.23;;;6.60;82.10;;;;;;5033231;28;20188;-85
2023/04/25 01:49:48;;;;;;;30.37;22.00;;;6.60;82.20;;;;;;5015326;28;20554;-86
2023/04/25 01:52:14;;;;;;;29.43;21.67;;;6.60;81.60;;;;;;5015212;28;20283;-86
2023/04/25 01:54:43;;;;;;;38.53;24.23;;;6.60;81.60;;;;;;5015840;28;20190;-86
2023/04/25 01:57:09;;;;;;;45.30;23.97;;;6.50;81.30;;;;;;5034576;28;20195;-86
2023/04/25 01:59:35;;;;;;;27.67;12.93;;;6.60;81.20;;;;;;5036694;28;20277;-86
2023/04/25 02:02:03;;;;;;;31.17;12.80;;;6.50;81.60;;;;;;5036717;28;20173;-86
2023/04/25 02:04:29;;;;;;;34.37;22.57;;;6.50;81.40;;;;;;5036649;28;20177;-86
2023/04/25 02:06:55;;;;;;;33.07;22.83;;;6.50;81.30;;;;;;5019124;28;20685;-86
2023/04/25 02:09:20;;;;;;;33.30;21.90;;;6.50;81.80;;;;;;5019001;28;20184;-86
2023/04/25 02:11:46;;;;;;;40.93;23.70;;;6.50;82.00;;;;;;5036825;28;20322;-86
2023/04/25 02:14:12;;;;;;;38.60;11.43;;;6.50;81.90;;;;;;5019385;28;20306;-87
2023/04/25 02:16:39;;;;;;;35.00;11.80;;;6.50;82.50;;;;;;5018691;28;20199;-87
2023/04/25 02:19:05;;;;;;;31.87;20.57;;;6.50;82.90;;;;;;5018672;28;20207;-86
2023/04/25 02:21:31;;;;;;;33.53;20.47;;;6.40;82.80;;;;;;5018659;28;20173;-86
2023/04/25 02:23:57;;;;;;;34.90;21.80;;;6.40;82.00;;;;;;5018784;28;20179;-86
2023/04/25 02:26:23;;;;;;;30.10;20.73;;;6.40;81.50;;;;;;5018853;28;20208;-86
2023/04/25 02:28:50;;;;;;;25.07;17.30;;;6.40;81.40;;;;;;5036354;28;20177;-86
2023/04/25 02:31:16;;;;;;;37.30;12.83;;;6.40;79.50;;;;;;5019348;28;20180;-86
2023/04/25 02:33:41;;;;;;;28.73;11.57;;;6.40;80.00;;;;;;5018463;28;20564;-86
2023/04/25 02:36:07;;;;;;;43.63;23.03;;;6.40;80.30;;;;;;5035969;28;20215;-86
2023/04/25 02:38:33;;;;;;;29.50;23.97;;;6.40;80.00;;;;;;5036016;28;20573;-86
2023/04/25 02:40:58;;;;;;;38.23;23.23;;;6.40;79.80;;;;;;5018317;28;20259;-86
2023/04/25 02:43:24;;;;;;;38.03;23.87;;;6.40;79.80;;;;;;5035928;28;20654;-86
2023/04/25 02:45:49;;;;;;;23.27;13.53;;;6.30;78.30;;;;;;5018267;28;20654;-86
2023/04/25 02:48:15;;;;;;;22.33;11.70;;;6.30;77.30;;;;;;5018582;28;20226;-86
2023/04/25 02:50:40;;;;;;;36.20;24.80;;;6.20;77.40;;;;;;5018250;28;20226;-86
2023/04/25 02:53:06;;;;;;;35.00;24.97;;;6.10;76.70;;;;;;5018108;28;20173;-86
2023/04/25 02:55:31;;;;;;;28.53;25.07;;;6.00;76.70;;;;;;5035899;28;20254;-86
2023/04/25 02:57:57;;;;;;;34.20;25.13;;;5.90;75.60;;;;;;5018023;28;20220;-86
2023/04/25 03:00:23;;;;;;;22.77;13.87;;;5.90;75.70;;;;;;5035572;28;20214;-86
2023/04/25 03:02:48;;;;;;;33.97;13.43;;;5.90;75.40;;;;;;5035659;28;20208;-86
2023/04/25 03:05:14;;;;;;;30.13;19.37;;;5.80;76.40;;;;;;5017953;28;20176;-86
2023/04/25 03:07:40;;;;;;;31.87;24.20;;;5.80;76.70;;;;;;5017543;28;20254;-86
2023/04/25 03:10:07;;;;;;;38.37;24.60;;;5.80;76.50;;;;;;5035550;28;20676;-86
2023/04/25 03:12:32;;;;;;;30.53;25.97;;;5.80;75.60;;;;;;5017746;28;20184;-86
2023/04/25 03:14:58;;;;;;;26.83;13.63;;;5.70;76.10;;;;;;5035412;28;20552;-86
2023/04/25 03:17:23;;;;;;;30.30;12.77;;;5.70;76.20;;;;;;5017524;28;20260;-86
2023/04/25 03:19:49;;;;;;;24.17;12.10;;;5.70;77.00;;;;;;5035654;28;20212;-86
2023/04/25 03:22:15;;;;;;;26.23;22.13;;;5.50;77.60;;;;;;5017527;28;20219;-86
2023/04/25 03:24:40;;;;;;;32.73;23.10;;;5.60;77.40;;;;;;5017605;28;20173;-86
2023/04/25 03:27:06;;;;;;;28.97;23.20;;;5.60;77.90;;;;;;5035107;28;20207;-86
2023/04/25 03:29:31;;;;;;;26.50;23.40;;;5.50;78.20;;;;;;5017413;28;20180;-86
2023/04/25 03:31:57;;;;;;;25.90;12.00;;;5.50;78.30;;;;;;5017405;28;20190;-86
2023/04/25 03:34:23;;;;;;;28.70;12.07;;;5.50;78.40;;;;;;5017387;28;20178;-86
2023/04/25 03:36:49;;;;;;;31.97;21.07;;;5.50;78.30;;;;;;5034790;28;20218;-86
2023/04/25 03:39:15;;;;;;;33.17;22.63;;;5.50;78.60;;;;;;5017142;28;20206;-86
2023/04/25 03:41:43;;;;;;;27.67;21.93;;;5.50;78.40;;;;;;5017273;28;20180;-86
2023/04/25 06:12:24;;;;;;;21.60;13.40;;;5.70;83.50;;;;;;4960259;28;20598;-83
2023/04/25 06:14:49;;;;;;;24.30;14.33;;;5.80;84.10;;;;;;4961927;28;20178;-83
2023/04/25 06:17:15;;;;;;;29.73;16.10;;;5.80;83.50;;;;;;4959871;28;20209;-83
2023/04/25 06:19:40;;;;;;;26.20;9.80;;;5.90;83.00;;;;;;4944066;29;20211;-83
2023/04/25 06:22:07;;;;;;;15.83;8.00;;;6.00;82.70;;;;;;4961338;28;20178;-83
2023/04/25 06:24:33;;;;;;;20.00;15.97;;;6.10;82.90;;;;;;4961303;28;20203;-83
2023/04/25 06:26:59;;;;;;;28.73;16.83;;;6.20;81.90;;;;;;4943894;29;20205;-83
2023/04/25 06:29:25;;;;;;;21.47;14.90;;;6.20;81.00;;;;;;4944143;28;20206;-83
2023/04/25 06:31:50;;;;;;;22.13;14.00;;;6.30;80.70;;;;;;4961330;29;20214;-83
2023/04/25 06:34:17;;;;;;;11.47;7.97;;;6.30;80.10;;;;;;4944150;28;20629;-83
2023/04/25 06:36:43;;;;;;;14.40;8.03;;;6.30;80.30;;;;;;4943870;29;20282;-83
2023/04/25 06:39:09;;;;;;;19.73;15.20;;;6.30;80.20;;;;;;4943749;29;20293;-83
2023/04/25 06:41:35;;;;;;;20.67;15.73;;;6.30;79.90;;;;;;4943658;29;20258;-83
2023/04/25 06:44:00;;;;;;;16.40;14.53;;;6.30;79.90;;;;;;4939909;29;20167;-83
2023/04/25 06:46:26;;;;;;;25.40;16.53;;;6.40;80.50;;;;;;4957842;28;20245;-83
2023/04/25 06:48:52;;;;;;;19.20;7.90;;;6.40;80.10;;;;;;4940610;29;20183;-83
2023/04/25 06:51:17;;;;;;;11.87;8.37;;;6.40;80.20;;;;;;4957819;28;20183;-83
2023/04/25 06:53:43;;;;;;;23.60;10.90;;;6.30;80.00;;;;;;4957607;29;20175;-83
2023/04/25 06:56:08;;;;;;;23.23;17.10;;;6.30;80.20;;;;;;4940439;29;20200;-84
2023/04/25 06:58:34;;;;;;;24.70;17.03;;;6.30;79.90;;;;;;4940397;29;20631;-83
2023/04/25 07:01:00;;;;;;;21.97;15.57;;;6.40;80.70;;;;;;4940455;29;20219;-83
2023/04/25 07:03:25;;;;;;;28.10;18.10;;;6.50;80.90;;;;;;4940406;29;20191;-83
2023/04/25 07:05:51;;;;;;;18.80;7.73;;;6.50;80.30;;;;;;4957582;28;20655;-84
2023/04/25 07:08:17;;;;;;;11.13;7.17;;;6.50;80.70;;;;;;4957618;29;20183;-83
2023/04/25 07:10:42;;;;;;;22.23;15.23;;;6.50;80.40;;;;;;4940050;29;20202;-83
2023/04/25 07:13:08;;;;;;;19.50;16.10;;;6.50;80.90;;;;;;4957275;29;20163;-83
2023/04/25 07:15:34;;;;;;;24.60;15.93;;;6.60;81.20;;;;;;4939985;29;20590;-83
2023/04/25 07:17:59;;;;;;;22.00;15.97;;;6.60;81.40;;;;;;4957167;28;20191;-83
2023/04/25 07:20:27;;;;;;;16.77;7.20;;;6.70;81.30;;;;;;4939993;29;20650;-85
2023/04/25 07:22:53;;;;;;;19.93;8.23;;;6.70;81.30;;;;;;4957305;29;20179;-84
2023/04/25 07:25:18;;;;;;;17.13;13.63;;;6.80;81.50;;;;;;4939957;29;20180;-85
2023/04/25 07:27:44;;;;;;;20.83;16.43;;;6.80;81.50;;;;;;4939993;29;20246;-86
2023/04/25 07:30:10;;;;;;;21.13;14.10;;;6.80;82.00;;;;;;4956996;28;20558;-86
2023/04/25 07:32:35;;;;;;;17.73;14.13;;;6.80;81.90;;;;;;4939971;29;20566;-85
2023/04/25 07:35:01;;;;;;;16.37;7.30;;;6.80;82.00;;;;;;4939843;29;20638;-88
2023/04/25 07:37:27;;;;;;;14.03;6.70;;;6.70;81.00;;;;;;4939597;29;20747;-86
2023/04/25 07:39:52;;;;;;;17.43;9.80;;;6.80;81.80;;;;;;4956797;29;20199;-86
2023/04/25 07:42:18;;;;;;;26.80;15.57;;;6.80;80.80;;;;;;4940055;29;20171;-85
2023/04/25 07:44:43;;;;;;;24.47;16.70;;;6.80;81.30;;;;;;4956711;29;20182;-85
2023/04/25 07:47:10;;;;;;;24.07;15.50;;;6.90;81.40;;;;;;4939564;29;20691;-85
2023/04/25 07:49:36;;;;;;;19.13;15.77;;;7.00;81.40;;;;;;4939863;29;20187;-84
2023/04/25 07:52:03;;;;;;;23.57;7.90;;;6.90;80.00;;;;;;4956661;29;20187;-85
2023/04/25 07:54:28;;;;;;;16.07;8.00;;;7.00;80.10;;;;;;4938367;29;20232;-85
2023/04/25 07:56:54;;;;;;;21.07;16.13;;;7.20;80.00;;;;;;4956477;28;20199;-85
2023/04/25 07:59:20;;;;;;;17.90;14.83;;;7.20;79.30;;;;;;4956440;28;20214;-85
2023/04/25 08:01:45;;;;;;;17.57;15.13;;;7.20;78.80;;;;;;4939254;29;20203;-84
2023/04/25 08:04:11;;;;;;;22.00;15.53;;;6.80;78.80;;;;;;4940276;29;20212;-87
2023/04/25 08:06:36;;;;;;;23.87;8.80;;;7.00;80.00;;;;;;4956296;28;20195;-84
2023/04/25 08:09:02;;;;;;;12.60;7.57;;;7.00;79.60;;;;;;4939160;29;20198;-84
2023/04/25 08:11:28;;;;;;;22.90;16.00;;;7.00;80.40;;;;;;4956098;28;20282;-84
2023/04/25 08:13:54;;;;;;;24.50;15.30;;;7.20;80.20;;;;;;4956094;28;20254;-85
2023/04/25 08:16:20;;;;;;;21.10;16.43;;;7.70;80.70;;;;;;4939323;29;20246;-86
2023/04/25 08:18:45;;;;;;;31.73;18.07;;;7.70;78.70;;;;;;4938936;29;20203;-84
2023/04/25 08:21:11;;;;;;;23.77;17.03;;;7.40;78.40;;;;;;4939030;29;20175;-85
2023/04/25 08:23:37;;;;;;;22.33;9.73;;;7.40;79.40;;;;;;4938932;29;20183;-84
2023/04/25 08:26:04;;;;;;;21.80;9.13;;;7.50;79.60;;;;;;4939086;28;20239;-85
2023/04/25 08:28:30;;;;;;;20.03;16.30;;;7.70;80.00;;;;;;4938851;29;20207;-85
2023/04/25 08:30:55;;;;;;;24.43;15.67;;;7.60;79.10;;;;;;4938614;29;20213;-85
2023/04/25 08:33:21;;;;;;;18.43;13.40;;;7.70;79.40;;;;;;4938700;29;20184;-85
2023/04/25 08:35:47;;;;;;;20.80;16.80;;;7.80;79.70;;;;;;4955768;28;20207;-84
2023/04/25 08:38:12;;;;;;;12.53;11.23;;;7.30;76.80;;;;;;4938651;29;20190;-86
2023/04/25 08:40:39;;;;;;;13.47;10.93;;;7.00;74.00;;;;;;4956089;29;20226;-84
2023/04/25 08:43:13;;;;;;;16.53;14.80;;;7.10;76.20;;;;;;4938621;29;20208;-86
2023/04/25 08:45:42;;;;;;;26.83;18.50;;;7.20;76.30;;;;;;4939500;29;20183;-85
2023/04/25 08:48:11;;;;;;;18.20;16.43;;;7.40;76.70;;;;;;4938918;29;20372;-85
2023/04/25 08:50:50;;;;;;;19.30;16.13;;;7.20;75.70;;;;;;4938463;29;20635;-83
2023/04/25 08:53:18;;;;;;;24.17;14.50;;;7.30;76.30;;;;;;4938276;29;20179;-83
2023/04/25 08:55:46;;;;;;;12.83;9.90;;;7.30;76.90;;;;;;4938210;28;20206;-83
2023/04/25 08:58:12;;;;;;;16.73;9.90;;;7.30;77.00;;;;;;4938432;29;20222;-84
2023/04/25 09:00:38;;;;;;;21.57;15.70;;;7.70;78.30;;;;;;4938188;29;20291;-84
2023/04/25 09:03:04;;;;;;;22.30;15.50;;;7.60;77.50;;;;;;4938671;29;20188;-84
2023/04/25 09:05:31;;;;;;;19.50;17.37;;;7.80;78.00;;;;;;4939432;29;20642;-84
2023/04/25 09:07:56;;;;;;;21.30;15.50;;;7.70;76.90;;;;;;4939771;29;20565;-85
2023/04/25 09:10:22;;;;;;;21.67;8.90;;;6.50;82.10;;;;;;4938979;29;20203;-84
2023/04/25 09:13:08;;;;;;;15.43;8.30;;;6.30;83.70;;;;;;4938211;29;20278;-84
2023/04/25 09:15:53;;;;;;;24.20;12.70;;;6.50;84.60;;;;;;4938111;29;20175;-85
2023/04/25 09:18:30;;;;;;;26.47;14.23;;;6.50;85.70;;;;;;4938080;29;20175;-84
2023/04/25 09:21:07;;;;;;;16.00;13.00;;;6.50;84.70;;;;;;4955408;29;20242;-84
2023/04/25 09:23:46;;;;;;;15.60;12.47;;;6.80;85.20;;;;;;4937956;29;20175;-84
2023/04/25 09:26:19;;;;;;;12.93;6.63;;;6.90;85.40;;;;;;4938107;29;20591;-84
2023/04/25 09:28:45;;;;;;;17.23;9.33;;;7.10;85.20;;;;;;4938218;29;20187;-84
2023/04/25 09:31:11;;;;;;;19.87;14.63;;;7.00;83.20;;;;;;4955352;29;20176;-84
2023/04/25 09:33:37;;;;;;;23.63;14.33;;;7.00;83.40;;;;;;4938071;29;20194;-84
2023/04/25 09:36:13;;;;;;;15.97;13.17;;;7.10;83.40;;;;;;4938196;28;20207;-84
2023/04/25 09:38:43;;;;;;;16.73;15.20;;;7.30;84.20;;;;;;4955645;29;20274;-84
2023/04/25 09:41:10;;;;;;;10.93;10.00;;;7.30;80.80;;;;;;4955375;28;20250;-84
2023/04/25 09:43:36;;;;;;;14.07;12.07;;;7.20;78.20;;;;;;4955147;29;20210;-84
2023/04/25 09:46:07;;;;;;;19.70;17.93;;;7.20;76.10;;;;;;4937779;28;20186;-82
2023/04/25 09:48:32;;;;;;;18.63;16.77;;;6.90;74.90;;;;;;4955176;29;20159;-84
2023/04/25 09:51:09;;;;;;;20.07;18.47;;;7.10;77.90;;;;;;4938685;29;20190;-87
2023/04/25 09:53:37;;;;;;;19.90;17.97;;;7.00;75.90;;;;;;4937891;29;20230;-87
2023/04/25 09:56:08;;;;;;;11.00;9.90;;;7.00;77.70;;;;;;4937839;28;20564;-88
2023/04/25 09:58:35;;;;;;;17.93;10.20;;;7.30;78.60;;;;;;4937672;29;20171;-87
2023/04/25 10:01:03;;;;;;;19.73;10.50;;;7.60;78.50;;;;;;4937729;29;20171;-90
2023/04/25 10:03:33;;;;;;;20.87;16.10;;;7.80;78.90;;;;;;4937747;29;20183;-90
2023/04/25 10:06:06;;;;;;;19.83;17.43;;;8.20;78.70;;;;;;4937736;28;20592;-89
2023/04/25 10:08:33;;;;;;;21.33;18.37;;;8.20;77.20;;;;;;4937779;29;20555;-87
2023/04/25 10:11:04;;;;;;;23.87;20.90;;;8.20;77.40;;;;;;4937711;29;20191;-89
2023/04/25 10:13:31;;;;;;;22.07;12.03;;;8.00;75.40;;;;;;4937676;29;20178;-89
2023/04/25 10:15:58;;;;;;;14.77;11.23;;;8.00;73.70;;;;;;4937519;28;20181;-90
2023/04/25 10:18:26;;;;;;;22.23;19.73;;;8.10;73.40;;;;;;4956347;28;20179;-89
2023/04/25 10:20:57;;;;;;;25.07;20.57;;;8.50;72.10;;;;;;4941125;29;20179;-89
2023/04/25 10:23:23;;;;;;;24.23;22.20;;;9.00;72.40;;;;;;4958347;29;20168;-89
2023/04/25 10:25:51;;;;;;;25.30;21.67;;;8.90;68.70;;;;;;4941056;28;20190;-90
2023/04/25 10:28:17;;;;;;;16.13;14.50;;;8.90;72.00;;;;;;4941060;29;20187;-89
2023/04/25 10:30:58;;;;;;;18.40;13.30;;;8.60;70.00;;;;;;4941091;29;20184;-89
2023/04/25 10:33:37;;;;;;;19.93;18.13;;;8.60;69.80;;;;;;4941073;29;20183;-87
2023/04/25 10:36:14;;;;;;;23.50;21.13;;;9.00;69.30;;;;;;4940829;28;20705;-89
2023/04/25 10:38:42;;;;;;;23.87;21.57;;;9.20;70.40;;;;;;4941578;29;20230;-89
2023/04/25 10:41:09;;;;;;;26.10;23.40;;;9.30;69.40;;;;;;4957990;28;20190;-89
2023/04/25 10:43:39;;;;;;;24.90;22.57;;;9.10;68.30;;;;;;4957960;28;20184;-90
2023/04/25 10:46:18;;;;;;;13.50;12.43;;;9.20;67.10;;;;;;4940618;28;20195;-89
2023/04/25 10:48:52;;;;;;;15.57;14.17;;;9.50;67.30;;;;;;4957857;28;20175;-89
2023/04/25 10:51:26;;;;;;;23.93;21.93;;;9.10;66.30;;;;;;4957973;29;20174;-88
2023/04/25 10:53:55;;;;;;;25.17;22.50;;;9.30;67.30;;;;;;4940633;29;20175;-89
2023/04/25 10:56:28;;;;;;;23.93;21.57;;;9.00;68.60;;;;;;4940493;29;20769;-89
2023/04/25 10:59:14;;;;;;;23.63;21.50;;;9.10;68.70;;;;;;4940546;29;20222;-89
2023/04/25 11:01:43;;;;;;;16.33;13.47;;;9.50;69.10;;;;;;4957700;29;20155;-89
2023/04/25 11:04:25;;;;;;;12.53;11.17;;;8.40;72.10;;;;;;4940386;29;20206;-88
2023/04/25 11:07:00;;;;;;;22.53;19.87;;;7.90;76.00;;;;;;4940586;29;20199;-89
2023/04/25 11:09:26;;;;;;;21.53;19.47;;;8.00;75.80;;;;;;4940490;29;20175;-89
2023/04/25 11:11:56;;;;;;;20.87;18.73;;;8.10;73.10;;;;;;4940157;29;20194;-89
2023/04/25 11:14:22;;;;;;;21.53;19.50;;;8.30;74.80;;;;;;4940070;29;20263;-89
2023/04/25 11:16:56;;;;;;;15.83;12.37;;;8.50;74.40;;;;;;4940194;29;20405;-89
2023/04/25 11:19:23;;;;;;;18.10;11.90;;;8.70;74.40;;;;;;4940203;29;20573;-89
2023/04/25 11:21:48;;;;;;;22.43;20.30;;;9.10;74.90;;;;;;4940086;29;20278;-89
2023/04/25 11:24:16;;;;;;;25.77;23.10;;;8.80;70.00;;;;;;4940081;29;20247;-89
2023/04/25 11:26:42;;;;;;;21.90;20.13;;;8.70;68.60;;;;;;4939998;29;20198;-88
2023/04/25 11:29:08;;;;;;;22.67;21.07;;;9.30;69.00;;;;;;4939719;29;20191;-88
2023/04/25 11:31:33;;;;;;;22.90;20.70;;;9.40;67.80;;;;;;4940784;29;20272;-87
2023/04/25 11:33:59;;;;;;;14.57;13.17;;;9.80;67.40;;;;;;4939911;29;20179;-89
2023/04/25 11:36:26;;;;;;;16.77;15.27;;;10.00;63.80;;;;;;4939867;29;20210;-89
2023/04/25 11:38:52;;;;;;;23.03;21.03;;;9.60;60.10;;;;;;4956970;29;20255;-88
2023/04/25 11:41:19;;;;;;;23.53;20.80;;;9.60;60.80;;;;;;4956859;29;20179;-89
2023/04/25 11:43:44;;;;;;;22.87;20.70;;;9.90;62.40;;;;;;4940123;29;20176;-89
2023/04/25 11:46:11;;;;;;;22.23;20.40;;;10.10;62.10;;;;;;4939639;29;20704;-89
2023/04/25 11:48:40;;;;;;;19.80;13.60;;;10.30;59.40;;;;;;4939580;29;20168;-89
2023/04/25 11:51:06;;;;;;;16.93;13.57;;;10.30;63.10;;;;;;4939592;29;20547;-89
2023/04/25 11:53:31;;;;;;;22.40;20.50;;;10.00;61.70;;;;;;4940438;29;20267;-89
2023/04/25 11:55:57;;;;;;;23.43;21.03;;;10.10;60.70;;;;;;4956715;28;20167;-89
2023/04/25 11:58:22;;;;;;;24.00;20.25;;;9.50;62.20;;;;;;4939660;29;20186;-89
2023/04/25 12:00:48;;;;;;;22.90;20.87;;;9.80;64.60;;;;;;4939382;29;20653;-89
2023/04/25 12:03:14;;;;;;;21.47;19.57;;;10.00;63.00;;;;;;4939453;29;20242;-89
2023/04/25 12:05:39;;;;;;;18.10;13.20;;;9.50;62.70;;;;;;4939339;29;20175;-89
2023/04/25 12:08:15;;;;;;;16.33;12.60;;;9.40;63.00;;;;;;4956389;28;20241;-89
2023/04/25 12:10:44;;;;;;;21.87;20.00;;;9.90;63.90;;;;;;4956660;28;20221;-89
2023/04/25 12:13:20;;;;;;;20.83;18.87;;;9.70;64.40;;;;;;4939915;29;20266;-89
2023/04/25 12:15:46;;;;;;;20.23;18.73;;;9.90;60.60;;;;;;4939038;28;20277;-88
2023/04/25 12:18:12;;;;;;;26.60;21.37;;;10.10;62.10;;;;;;4939068;29;20229;-89
2023/04/25 12:20:37;;;;;;;19.67;14.73;;;10.40;61.90;;;;;;4938955;29;20213;-89
2023/04/25 12:23:07;;;;;;;23.53;13.00;;;9.80;64.30;;;;;;4938988;29;20179;-89
2023/04/25 12:25:41;;;;;;;23.80;21.50;;;9.10;70.00;;;;;;4956171;29;20574;-89
2023/04/25 12:28:24;;;;;;;20.67;18.57;;;8.70;72.30;;;;;;4956052;28;20186;-89
2023/04/25 12:31:01;;;;;;;21.27;19.47;;;8.80;74.40;;;;;;4939238;29;20230;-89
2023/04/25 12:33:31;;;;;;;22.97;20.90;;;9.20;73.50;;;;;;4938911;29;20182;-89
2023/04/25 12:35:58;;;;;;;13.80;12.30;;;9.50;69.80;;;;;;4938704;28;20184;-89
2023/04/25 12:38:29;;;;;;;16.00;13.70;;;9.80;67.60;;;;;;4955923;29;20670;-89
2023/04/25 12:40:55;;;;;;;15.73;13.70;;;10.10;67.80;;;;;;4938142;29;20222;-89
2023/04/25 12:43:21;;;;;;;20.43;19.03;;;10.10;64.90;;;;;;4938644;29;20658;-89
2023/04/25 12:45:49;;;;;;;22.07;19.97;;;9.20;68.80;;;;;;4938604;28;20681;-89
2023/04/25 12:48:15;;;;;;;23.90;20.07;;;8.40;74.50;;;;;;4938884;29;20175;-90
2023/04/25 12:50:41;;;;;;;18.23;16.57;;;7.00;77.80;;;;;;4938844;29;20526;-90
2023/04/25 12:53:06;;;;;;;12.40;8.03;;;6.60;81.00;;;;;;4938501;29;20179;-90
2023/04/25 12:55:32;;;;;;;9.27;7.83;;;6.30;81.60;;;;;;4938521;29;20179;-91
2023/04/25 12:57:57;;;;;;;19.80;18.50;;;6.40;82.30;;;;;;4938641;29;20199;-90
2023/04/25 13:00:23;;;;;;;17.43;16.23;;;6.30;78.30;;;;;;4938306;29;20207;-90
2023/04/25 13:02:49;;;;;;;17.53;14.63;;;6.60;79.60;;;;;;4955493;28;20171;-90
2023/04/25 13:05:15;;;;;;;17.97;14.40;;;6.70;81.50;;;;;;4955466;28;20171;-90
2023/04/25 13:07:40;;;;;;;16.67;6.50;;;7.10;82.10;;;;;;4938254;29;20238;-90
2023/04/25 13:10:07;;;;;;;15.90;7.37;;;7.70;83.60;;;;;;4938442;29;20234;-90
2023/04/25 13:12:33;;;;;;;25.83;9.67;;;8.10;82.90;;;;;;4938568;29;20223;-90
2023/04/25 13:14:58;;;;;;;17.47;10.33;;;8.50;81.70;;;;;;4938078;29;20186;-90
2023/04/25 13:17:24;;;;;;;24.63;16.20;;;8.60;80.90;;;;;;4938144;29;20210;-90
2023/04/25 13:19:49;;;;;;;11.00;9.90;;;8.30;79.20;;;;;;4938065;29;20580;-90
2023/04/25 13:22:16;;;;;;;11.30;10.17;;;8.10;79.80;;;;;;4938360;29;20237;-90
2023/04/25 13:24:42;;;;;;;7.73;6.30;;;7.10;81.30;;;;;;4938205;29;20179;-90
2023/04/25 13:27:08;;;;;;;9.50;7.20;;;6.30;83.30;;;;;;4937968;29;20295;-91
2023/04/25 13:29:35;;;;;;;11.03;9.93;;;5.80;83.70;;;;;;4955222;28;20251;-91
2023/04/25 13:32:01;;;;;;;10.23;8.73;;;5.90;84.50;;;;;;4938895;29;20580;-90
2023/04/25 13:34:29;;;;;;;11.47;9.07;;;6.30;84.30;;;;;;4937956;29;20183;-91
2023/04/25 13:36:55;;;;;;;12.73;8.63;;;6.50;84.80;;;;;;4955039;28;20202;-90
2023/04/25 13:39:20;;;;;;;10.13;6.67;;;6.60;84.40;;;;;;4938072;29;20207;-90
2023/04/25 13:41:46;;;;;;;13.13;7.07;;;6.70;84.90;;;;;;4955334;28;20183;-91
2023/04/25 13:44:11;;;;;;;10.63;5.73;;;7.00;84.10;;;;;;4955146;28;20218;-90
2023/04/25 13:46:37;;;;;;;17.60;8.23;;;7.70;84.90;;;;;;4955254;28;20195;-90
2023/04/25 13:49:04;;;;;;;14.77;8.90;;;8.10;84.20;;;;;;4937825;29;20183;-90
2023/04/25 13:51:30;;;;;;;16.53;11.37;;;8.00;83.50;;;;;;4955394;28;20202;-90
2023/04/25 13:53:56;;;;;;;19.80;12.80;;;8.10;79.70;;;;;;4941704;29;20179;-90
2023/04/25 13:56:23;;;;;;;17.00;8.63;;;8.20;77.70;;;;;;4942257;29;20199;-90
2023/04/25 13:58:48;;;;;;;10.03;9.10;;;8.70;78.90;;;;;;4941632;29;20211;-90
2023/04/25 14:01:14;;;;;;;15.40;13.97;;;9.00;75.30;;;;;;4941909;29;20187;-90
2023/04/25 14:03:41;;;;;;;18.90;17.10;;;8.70;73.20;;;;;;4958719;28;20721;-90
2023/04/25 14:06:08;;;;;;;20.17;18.17;;;8.80;71.70;;;;;;4941412;28;20206;-90
2023/04/25 14:08:34;;;;;;;18.77;16.97;;;9.10;71.70;;;;;;4941372;29;20666;-90
2023/04/25 14:11:00;;;;;;;19.00;17.30;;;9.30;71.80;;;;;;4941228;29;20226;-90
2023/04/25 14:13:26;;;;;;;15.67;13.00;;;9.00;71.20;;;;;;4958531;29;20167;-90
2023/04/25 14:15:51;;;;;;;19.07;13.47;;;8.70;70.70;;;;;;4942027;28;20540;-90
2023/04/25 14:18:17;;;;;;;17.17;15.67;;;9.10;70.70;;;;;;4958447;29;20603;-89
2023/04/25 14:20:43;;;;;;;20.10;17.37;;;9.20;70.00;;;;;;4941271;29;20215;-90
2023/04/25 14:23:08;;;;;;;20.00;18.07;;;9.30;70.20;;;;;;4941526;29;20212;-90
2023/04/25 14:25:35;;;;;;;20.87;18.07;;;9.40;67.00;;;;;;4958629;28;20268;-90
2023/04/25 14:28:01;;;;;;;20.30;14.63;;;9.40;66.40;;;;;;4941021;29;20199;-89
2023/04/25 14:30:26;;;;;;;17.10;13.53;;;9.60;67.10;;;;;;4958111;29;20198;-90
2023/04/25 14:32:52;;;;;;;18.27;13.40;;;9.80;66.20;;;;;;4941599;29;20223;-89
2023/04/25 14:35:18;;;;;;;17.93;16.33;;;9.30;66.30;;;;;;4940946;29;20180;-89
2023/04/25 14:37:43;;;;;;;17.53;15.97;;;8.80;68.30;;;;;;4940843;29;20203;-90
2023/04/25 14:40:10;;;;;;;17.23;15.20;;;8.60;70.40;;;;;;4940767;29;20203;-89
2023/04/25 14:42:36;;;;;;;16.50;14.53;;;8.90;72.00;;;;;;4940793;29;20179;-89
2023/04/25 14:45:04;;;;;;;17.47;12.77;;;8.60;72.70;;;;;;4940865;29;20180;-89
2023/04/25 14:47:29;;;;;;;17.13;11.80;;;8.60;72.30;;;;;;4940819;29;20195;-89
2023/04/25 14:49:55;;;;;;;23.83;16.30;;;8.60;73.00;;;;;;4940677;29;20673;-89
2023/04/25 14:52:21;;;;;;;18.03;12.93;;;9.00;73.70;;;;;;4957817;28;20180;-89
2023/04/25 14:54:47;;;;;;;20.67;13.27;;;8.90;71.90;;;;;;4940664;29;20241;-89
2023/04/25 14:57:13;;;;;;;20.70;13.13;;;9.30;71.50;;;;;;4940483;29;20293;-89
2023/04/25 14:59:39;;;;;;;17.00;12.70;;;9.30;69.90;;;;;;4957584;29;20347;-89
2023/04/25 15:02:05;;;;;;;13.97;12.70;;;9.40;68.10;;;;;;4957641;29;20183;-89
2023/04/25 15:04:31;;;;;;;21.87;12.57;;;9.20;67.60;;;;;;4939695;29;20650;-89
2023/04/25 15:06:57;;;;;;;19.70;15.07;;;9.30;68.40;;;;;;4940320;29;20234;-89